createdAt,value
2017-10-20T00:01:31.034Z,96.40
2017-10-20T00:03:58.616Z,95.70
2017-10-20T00:06:26.175Z,95.20
2017-10-20T00:08:53.811Z,94.80
2017-10-20T00:11:21.469Z,94.10
2017-10-20T00:13:48.997Z,94.60
2017-10-20T00:16:18.087Z,94.00
2017-10-20T00:18:46.502Z,93.30
2017-10-20T00:21:14.062Z,93.30
2017-10-20T00:23:41.717Z,93.50
2017-10-20T00:26:09.958Z,93.00
2017-10-20T00:28:38.256Z,92.80
2017-10-20T00:31:05.819Z,92.60
2017-10-20T00:33:33.404Z,92.80
2017-10-20T00:36:00.957Z,91.00
2017-10-20T00:38:28.509Z,91.40
2017-10-20T00:40:56.100Z,91.40
2017-10-20T00:43:23.638Z,90.90
2017-10-20T00:45:51.194Z,91.20
2017-10-20T00:48:18.765Z,90.80
2017-10-20T00:50:46.309Z,90.60
2017-10-20T00:53:13.837Z,91.00
2017-10-20T00:55:41.518Z,90.20
2017-10-20T00:58:09.056Z,89.80
2017-10-20T01:00:36.623Z,90.00
2017-10-20T01:03:04.167Z,90.00
2017-10-20T01:05:32.559Z,89.50
2017-10-20T01:08:00.092Z,89.50
2017-10-20T01:10:28.438Z,89.30
2017-10-20T01:12:55.978Z,89.30
2017-10-20T01:15:23.529Z,90.00
2017-10-20T01:17:51.250Z,90.00
2017-10-20T01:20:18.774Z,89.60
2017-10-20T01:22:46.494Z,89.20
2017-10-20T01:25:14.038Z,89.40
2017-10-20T01:27:41.610Z,90.80
2017-10-20T01:30:09.132Z,90.10
2017-10-20T01:32:37.490Z,90.10
2017-10-20T01:35:05.024Z,90.10
2017-10-20T01:37:32.609Z,90.70
2017-10-20T01:40:00.194Z,90.80
2017-10-20T01:42:29.268Z,91.10
2017-10-20T01:44:56.784Z,91.10
2017-10-20T01:47:24.516Z,91.50
2017-10-20T01:49:52.070Z,91.70
2017-10-20T01:52:19.641Z,91.70
2017-10-20T01:54:47.211Z,91.80
2017-10-20T01:57:14.750Z,91.90
2017-10-20T01:59:42.381Z,91.90
2017-10-20T02:02:09.934Z,91.90
2017-10-20T02:04:37.555Z,92.20
2017-10-20T02:07:05.105Z,92.10
2017-10-20T02:09:32.692Z,92.40
2017-10-20T02:12:00.232Z,92.30
2017-10-20T02:14:27.758Z,91.90
2017-10-20T02:16:55.327Z,91.70
2017-10-20T02:19:22.965Z,91.80
2017-10-20T02:21:50.572Z,91.60
2017-10-20T02:24:18.138Z,91.60
2017-10-20T02:26:45.714Z,91.60
2017-10-20T02:29:13.273Z,91.30
2017-10-20T02:31:40.905Z,91.00
2017-10-20T02:34:08.441Z,91.20
2017-10-20T02:36:35.979Z,90.70
2017-10-20T02:39:03.599Z,90.70
2017-10-20T02:41:31.137Z,91.20
2017-10-20T02:43:58.677Z,90.70
2017-10-20T02:46:26.252Z,90.80
2017-10-20T02:48:53.787Z,91.20
2017-10-20T02:51:21.364Z,91.30
2017-10-20T02:53:48.916Z,91.60
2017-10-20T02:56:16.444Z,91.90
2017-10-20T02:58:44.052Z,92.10
2017-10-20T03:01:11.683Z,92.20
2017-10-20T03:03:39.243Z,92.20
2017-10-20T03:06:06.794Z,92.40
2017-10-20T03:08:34.354Z,92.50
2017-10-20T03:11:01.974Z,92.30
2017-10-20T03:13:29.571Z,92.40
2017-10-20T03:15:57.236Z,92.20
2017-10-20T03:18:24.828Z,92.20
2017-10-20T03:20:52.439Z,92.20
2017-10-20T03:23:20.018Z,92.60
2017-10-20T03:25:47.610Z,92.40
2017-10-20T03:28:16.656Z,92.30
2017-10-20T03:30:44.232Z,92.20
2017-10-20T03:33:11.776Z,92.40
2017-10-20T03:35:39.340Z,92.50
2017-10-20T03:38:06.884Z,92.90
2017-10-20T03:40:34.470Z,92.60
2017-10-20T03:43:01.998Z,92.90
2017-10-20T03:45:30.493Z,92.80
2017-10-20T03:47:58.025Z,92.90
2017-10-20T03:50:26.350Z,92.50
2017-10-20T03:52:54.071Z,92.50
2017-10-20T03:55:21.754Z,92.50
2017-10-20T03:57:49.321Z,92.20
2017-10-20T04:00:16.911Z,92.10
2017-10-20T04:02:44.457Z,92.30
2017-10-20T04:05:12.020Z,92.60
2017-10-20T04:07:39.615Z,93.00
2017-10-20T04:10:07.172Z,93.10
2017-10-20T04:12:35.420Z,93.30
2017-10-20T04:15:02.998Z,93.20
2017-10-20T04:17:31.324Z,93.10
2017-10-20T04:19:58.871Z,93.10
2017-10-20T04:22:26.499Z,93.60
2017-10-20T04:24:54.828Z,94.20
2017-10-20T04:27:22.362Z,94.20
2017-10-20T04:29:50.653Z,94.60
2017-10-20T04:32:18.204Z,94.50
2017-10-20T04:34:45.785Z,94.60
2017-10-20T04:37:13.376Z,93.90
2017-10-20T04:39:41.764Z,92.10
2017-10-20T04:42:10.372Z,92.20
2017-10-20T04:44:37.962Z,92.10
2017-10-20T04:47:05.578Z,91.70
2017-10-20T04:49:34.015Z,91.40
2017-10-20T04:52:01.748Z,91.40
2017-10-20T04:54:29.391Z,90.00
2017-10-20T04:56:56.936Z,90.70
2017-10-20T04:59:24.543Z,90.80
2017-10-20T05:01:52.086Z,91.10
2017-10-20T05:04:19.686Z,91.60
2017-10-20T05:06:48.190Z,92.40
2017-10-20T05:09:15.746Z,92.40
2017-10-20T05:11:43.531Z,92.80
2017-10-20T05:14:11.096Z,93.10
2017-10-20T05:16:38.742Z,93.40
2017-10-20T05:19:06.304Z,93.90
2017-10-20T05:21:34.053Z,94.30
2017-10-20T05:24:01.620Z,94.70
2017-10-20T05:26:29.150Z,94.80
2017-10-20T05:28:56.715Z,95.10
2017-10-20T05:31:25.052Z,95.80
2017-10-20T05:33:52.598Z,95.80
2017-10-20T05:36:20.153Z,96.70
2017-10-20T05:38:47.740Z,97.50
2017-10-20T05:41:15.291Z,98.00
2017-10-20T05:43:42.853Z,98.30
2017-10-20T05:46:10.398Z,98.20
2017-10-20T05:48:37.934Z,98.10
2017-10-20T05:51:05.529Z,97.90
2017-10-20T05:53:33.069Z,98.20
2017-10-20T05:56:00.625Z,98.00
2017-10-20T05:58:28.191Z,98.00
2017-10-20T06:00:55.962Z,97.70
2017-10-20T06:03:23.513Z,97.40
2017-10-20T06:05:51.221Z,96.90
2017-10-20T06:08:18.759Z,97.00
2017-10-20T06:10:46.301Z,97.30
2017-10-20T06:13:14.007Z,97.10
2017-10-20T06:15:41.534Z,96.70
2017-10-20T06:18:09.856Z,96.80
2017-10-20T06:20:37.593Z,96.70
2017-10-20T06:23:05.132Z,96.80
2017-10-20T06:25:33.442Z,96.90
2017-10-20T06:28:01.024Z,96.90
2017-10-20T06:30:28.571Z,96.90
2017-10-20T06:32:56.161Z,96.90
2017-10-20T06:35:23.768Z,96.70
2017-10-20T06:37:51.304Z,97.00
2017-10-20T06:40:19.606Z,96.80
2017-10-20T06:42:47.153Z,96.80
2017-10-20T06:45:14.817Z,97.00
2017-10-20T06:47:42.399Z,96.70
2017-10-20T06:50:10.645Z,96.70
2017-10-20T06:52:38.203Z,96.60
2017-10-20T06:55:05.829Z,96.60
2017-10-20T06:57:33.539Z,96.50
2017-10-20T07:00:01.082Z,96.00
2017-10-20T07:02:28.614Z,95.80
2017-10-20T07:04:57.998Z,95.40
2017-10-20T07:07:32.489Z,95.40
2017-10-20T07:10:02.277Z,94.90
2017-10-20T07:12:30.306Z,94.80
2017-10-20T07:14:57.852Z,94.90
2017-10-20T07:17:25.408Z,94.10
2017-10-20T07:19:58.857Z,94.00
2017-10-20T07:22:26.427Z,93.90
2017-10-20T07:24:54.146Z,93.90
2017-10-20T07:27:22.463Z,94.00
2017-10-20T07:29:50.228Z,93.90
2017-10-20T07:32:17.776Z,94.10
2017-10-20T07:34:46.137Z,94.30
2017-10-20T07:37:13.819Z,94.10
2017-10-20T07:39:42.161Z,93.90
2017-10-20T07:42:10.503Z,93.60
2017-10-20T07:44:38.216Z,93.60
2017-10-20T07:47:05.828Z,93.50
2017-10-20T07:49:33.399Z,94.20
2017-10-20T07:52:00.986Z,93.50
2017-10-20T07:54:29.273Z,93.70
2017-10-20T07:56:56.854Z,93.70
2017-10-20T07:59:24.582Z,93.20
2017-10-20T08:01:52.285Z,93.30
2017-10-20T08:04:19.849Z,93.10
2017-10-20T08:06:47.487Z,93.00
2017-10-20T08:09:15.047Z,93.60
2017-10-20T08:11:42.578Z,93.40
2017-10-20T08:14:10.141Z,93.10
2017-10-20T08:16:37.756Z,93.10
2017-10-20T08:19:05.356Z,92.60
2017-10-20T08:21:33.029Z,92.80
2017-10-20T08:24:00.614Z,93.20
2017-10-20T08:26:28.202Z,93.70
2017-10-20T08:28:55.805Z,93.60
2017-10-20T08:31:23.376Z,93.10
2017-10-20T08:33:50.968Z,93.20
2017-10-20T08:36:18.684Z,93.10
2017-10-20T08:38:46.299Z,92.90
2017-10-20T08:41:13.946Z,93.20
2017-10-20T08:43:41.595Z,93.10
2017-10-20T08:46:09.133Z,93.10
2017-10-20T08:48:36.666Z,93.00
2017-10-20T08:51:04.996Z,93.10
2017-10-20T08:53:32.629Z,93.00
2017-10-20T08:56:00.158Z,93.20
2017-10-20T08:58:28.489Z,97.10
2017-10-20T09:00:56.231Z,97.10
2017-10-20T09:03:23.798Z,98.50
2017-10-20T09:05:51.429Z,98.70
2017-10-20T09:08:19.005Z,98.30
2017-10-20T09:10:46.564Z,98.30
2017-10-20T09:13:14.530Z,98.60
2017-10-20T09:15:42.086Z,98.20
2017-10-20T09:18:09.631Z,98.30
2017-10-20T09:20:37.395Z,97.50
2017-10-20T09:23:04.920Z,97.20
2017-10-20T09:25:33.230Z,96.90
2017-10-20T09:28:00.795Z,96.80
2017-10-20T09:30:28.361Z,96.60
2017-10-20T09:32:56.223Z,96.30
2017-10-20T09:35:24.725Z,96.30
2017-10-20T09:37:52.290Z,96.00
2017-10-20T09:40:20.480Z,96.20
2017-10-20T09:42:48.175Z,95.90
2017-10-20T09:45:15.769Z,95.50
2017-10-20T09:47:43.308Z,95.60
2017-10-20T09:50:10.876Z,95.70
2017-10-20T09:52:38.421Z,95.20
2017-10-20T09:55:05.963Z,94.80
2017-10-20T09:57:33.628Z,94.00
2017-10-20T10:00:01.421Z,93.60
2017-10-20T10:05:06.462Z,91.40
2017-10-20T10:07:41.028Z,91.70
2017-10-20T10:10:08.577Z,90.70
2017-10-20T10:12:36.147Z,90.30
2017-10-20T10:15:03.717Z,89.70
2017-10-20T10:17:32.112Z,89.00
2017-10-20T10:19:59.658Z,88.90
2017-10-20T10:22:27.971Z,88.40
2017-10-20T10:24:55.580Z,88.20
2017-10-20T10:27:24.378Z,86.50
2017-10-20T10:29:52.706Z,82.50
2017-10-20T10:32:20.349Z,82.40
2017-10-20T10:34:47.884Z,82.90
2017-10-20T10:37:15.498Z,80.30
2017-10-20T10:39:43.066Z,81.10
2017-10-20T10:42:10.673Z,81.80
2017-10-20T10:44:38.285Z,79.70
2017-10-20T10:47:06.004Z,78.80
2017-10-20T10:49:33.646Z,78.00
2017-10-20T10:52:02.039Z,80.40
2017-10-20T10:54:29.615Z,80.40
2017-10-20T10:56:57.184Z,81.00
2017-10-20T10:59:24.732Z,78.10
2017-10-20T11:01:52.418Z,75.70
2017-10-20T11:04:19.950Z,75.10
2017-10-20T11:06:59.297Z,75.00
2017-10-20T11:09:26.931Z,75.00
2017-10-20T11:12:06.576Z,74.90
2017-10-20T11:14:34.233Z,75.80
2017-10-20T11:17:01.794Z,74.50
2017-10-20T11:19:29.363Z,74.00
2017-10-20T11:21:56.915Z,72.00
2017-10-20T11:24:24.444Z,71.20
2017-10-20T11:26:52.036Z,71.40
2017-10-20T11:29:19.709Z,72.10
2017-10-20T11:31:47.344Z,71.30
2017-10-20T11:34:14.878Z,71.60
2017-10-20T11:36:42.507Z,72.50
2017-10-20T11:39:10.043Z,71.60
2017-10-20T11:41:37.697Z,69.80
2017-10-20T11:44:05.277Z,69.70
2017-10-20T11:46:32.822Z,69.20
2017-10-20T11:49:00.405Z,66.60
2017-10-20T11:51:27.950Z,66.80
2017-10-20T11:53:55.516Z,67.20
2017-10-20T11:56:23.206Z,64.40
2017-10-20T11:58:50.756Z,65.60
2017-10-20T12:01:19.116Z,63.40
2017-10-20T12:03:46.693Z,63.40
2017-10-20T12:06:14.989Z,60.90
2017-10-20T12:08:42.528Z,60.80
2017-10-20T12:11:10.974Z,61.30
2017-10-20T12:13:38.521Z,61.20
2017-10-20T12:16:06.260Z,61.90
2017-10-20T12:18:33.839Z,60.30
2017-10-20T12:21:01.491Z,60.60
2017-10-20T12:23:29.004Z,61.20
2017-10-20T12:25:57.318Z,61.30
2017-10-20T12:28:24.865Z,61.20
2017-10-20T12:30:52.406Z,61.80
2017-10-20T12:33:20.055Z,63.00
2017-10-20T12:35:48.362Z,62.60
2017-10-20T12:38:15.920Z,62.60
2017-10-20T12:40:43.787Z,61.70
2017-10-20T12:43:11.317Z,60.90
2017-10-20T12:45:38.910Z,61.60
2017-10-20T12:48:06.524Z,60.70
2017-10-20T12:50:34.844Z,60.30
2017-10-20T12:53:02.421Z,60.10
2017-10-20T12:55:29.974Z,59.70
2017-10-20T12:57:58.184Z,60.30
2017-10-20T13:00:25.746Z,61.20
2017-10-20T13:02:54.089Z,60.40
2017-10-20T13:05:21.677Z,60.30
2017-10-20T13:07:49.208Z,60.20
2017-10-20T13:10:16.791Z,59.20
2017-10-20T13:12:45.104Z,58.70
2017-10-20T13:15:12.641Z,58.30
2017-10-20T13:17:41.049Z,59.50
2017-10-20T13:20:08.610Z,59.50
2017-10-20T13:22:36.166Z,59.60
2017-10-20T13:25:03.720Z,60.80
2017-10-20T13:27:31.321Z,61.20
2017-10-20T13:29:58.869Z,60.20
2017-10-20T13:32:26.473Z,59.70
2017-10-20T13:34:54.766Z,60.50
2017-10-20T13:37:22.428Z,60.50
2017-10-20T13:39:50.025Z,60.70
2017-10-20T13:42:17.573Z,59.70
2017-10-20T13:44:45.172Z,58.60
2017-10-20T13:47:13.691Z,58.80
2017-10-20T13:49:41.256Z,58.60
2017-10-20T13:52:08.809Z,59.50
2017-10-20T13:54:36.565Z,59.90
2017-10-20T13:57:04.101Z,59.70
2017-10-20T13:59:31.662Z,57.20
2017-10-20T14:01:59.214Z,57.60
2017-10-20T14:04:26.805Z,57.30
2017-10-20T14:06:54.351Z,57.40
2017-10-20T14:09:22.143Z,57.90
2017-10-20T14:11:49.687Z,57.60
2017-10-20T14:14:17.265Z,57.70
2017-10-20T14:16:45.012Z,58.20
2017-10-20T14:19:12.559Z,57.70
2017-10-20T14:21:40.114Z,58.40
2017-10-20T14:24:07.718Z,58.90
2017-10-20T14:26:35.819Z,59.50
2017-10-20T14:29:04.176Z,59.50
2017-10-20T14:31:31.765Z,59.50
2017-10-20T14:33:59.327Z,59.70
2017-10-20T14:36:26.908Z,59.60
2017-10-20T14:38:54.462Z,59.90
2017-10-20T14:41:22.312Z,59.50
2017-10-20T14:43:49.853Z,58.80
2017-10-20T14:46:18.187Z,59.10
2017-10-20T14:48:45.776Z,59.10
2017-10-20T14:51:13.344Z,59.10
2017-10-20T14:53:40.968Z,59.80
2017-10-20T14:56:08.557Z,60.90
2017-10-20T14:58:36.906Z,61.20
2017-10-20T15:01:04.533Z,61.20
2017-10-20T15:03:32.106Z,61.10
2017-10-20T15:05:59.748Z,60.50
2017-10-20T15:08:27.365Z,60.50
2017-10-20T15:10:56.445Z,59.70
2017-10-20T15:13:24.023Z,59.80
2017-10-20T15:15:52.538Z,61.70
2017-10-20T15:18:20.229Z,61.10
2017-10-20T15:20:47.788Z,62.00
2017-10-20T15:23:15.400Z,61.00
2017-10-20T15:25:42.965Z,61.70
2017-10-20T15:28:10.632Z,62.00
2017-10-20T15:30:38.262Z,61.60
2017-10-20T15:33:06.794Z,63.70
2017-10-20T15:35:34.346Z,63.70
2017-10-20T15:38:01.996Z,63.00
2017-10-20T15:40:29.589Z,63.30
2017-10-20T15:42:57.170Z,63.70
2017-10-20T15:45:25.697Z,65.30
2017-10-20T15:47:53.239Z,64.60
2017-10-20T15:50:20.816Z,65.00
2017-10-20T15:52:48.677Z,65.10
2017-10-20T15:55:16.250Z,65.40
2017-10-20T15:57:43.810Z,66.30
2017-10-20T16:00:11.578Z,66.60
2017-10-20T16:02:39.132Z,66.30
2017-10-20T16:05:06.676Z,67.00
2017-10-20T16:07:34.417Z,67.30
2017-10-20T16:10:01.992Z,66.70
2017-10-20T16:12:29.653Z,68.70
2017-10-20T16:14:57.403Z,71.00
2017-10-20T16:17:25.038Z,71.80
2017-10-20T16:19:53.336Z,73.80
2017-10-20T16:22:21.174Z,73.70
2017-10-20T16:24:49.483Z,74.40
2017-10-20T16:27:17.043Z,74.30
2017-10-20T16:29:44.659Z,73.90
2017-10-20T16:32:12.853Z,73.70
2017-10-20T16:34:41.199Z,75.40
2017-10-20T16:37:08.822Z,75.30
2017-10-20T16:39:36.372Z,75.10
2017-10-20T16:42:03.891Z,75.20
2017-10-20T16:44:32.244Z,76.10
2017-10-20T16:46:59.854Z,76.00
2017-10-20T16:49:27.380Z,76.80
2017-10-20T16:51:55.023Z,77.00
2017-10-20T16:54:22.633Z,77.80
2017-10-20T16:56:50.327Z,77.20
2017-10-20T16:59:17.886Z,78.00
2017-10-20T17:01:45.434Z,78.00
2017-10-20T17:04:13.036Z,78.90
2017-10-20T17:06:40.588Z,78.90
2017-10-20T17:09:08.167Z,80.00
2017-10-20T17:11:37.289Z,80.60
2017-10-20T17:14:05.076Z,80.60
2017-10-20T17:16:32.637Z,80.20
2017-10-20T17:19:00.183Z,79.70
2017-10-20T17:21:27.917Z,79.80
2017-10-20T17:23:55.511Z,80.20
2017-10-20T17:26:23.056Z,79.60
2017-10-20T17:28:51.045Z,79.80
2017-10-20T17:31:18.577Z,79.80
2017-10-20T17:33:46.647Z,79.30
2017-10-20T17:36:15.097Z,79.30
2017-10-20T17:38:42.652Z,79.60
2017-10-20T17:41:11.677Z,79.60
2017-10-20T17:43:39.245Z,79.60
2017-10-20T17:46:06.854Z,79.80
2017-10-20T17:48:35.239Z,79.80
2017-10-20T17:51:03.704Z,79.80
2017-10-20T17:53:31.615Z,79.80
2017-10-20T17:55:59.209Z,79.90
2017-10-20T17:58:27.640Z,78.90
2017-10-20T18:00:55.186Z,79.70
2017-10-20T18:03:23.506Z,80.10
2017-10-20T18:05:51.166Z,80.10
2017-10-20T18:08:18.722Z,79.70
2017-10-20T18:10:46.322Z,79.90
2017-10-20T18:13:13.915Z,79.90
2017-10-20T18:15:41.689Z,80.40
2017-10-20T18:18:09.252Z,80.90
2017-10-20T18:20:36.958Z,80.20
2017-10-20T18:23:04.530Z,80.40
2017-10-20T18:25:32.865Z,81.10
2017-10-20T18:28:00.505Z,81.00
2017-10-20T18:30:28.158Z,81.20
2017-10-20T18:32:55.747Z,79.30
2017-10-20T18:35:23.322Z,78.60
2017-10-20T18:37:50.947Z,78.50
2017-10-20T18:40:18.489Z,77.70
2017-10-20T18:42:46.908Z,76.40
2017-10-20T18:45:14.562Z,76.20
2017-10-20T18:47:42.169Z,77.30
2017-10-20T18:50:10.724Z,76.40
2017-10-20T18:52:38.323Z,76.40
2017-10-20T18:55:06.015Z,77.10
2017-10-20T18:57:33.774Z,77.20
2017-10-20T19:00:01.366Z,79.00
2017-10-20T19:02:28.994Z,77.70
2017-10-20T19:04:56.845Z,78.00
2017-10-20T19:07:24.387Z,78.50
2017-10-20T19:09:52.044Z,79.00
2017-10-20T19:12:19.624Z,79.60
2017-10-20T19:14:47.209Z,79.70
2017-10-20T19:17:14.781Z,79.60
2017-10-20T19:19:42.501Z,80.30
2017-10-20T19:22:10.103Z,80.30
2017-10-20T19:24:37.698Z,81.70
2017-10-20T19:27:06.074Z,82.40
2017-10-20T19:29:34.382Z,83.00
2017-10-20T19:32:02.027Z,83.00
2017-10-20T19:34:29.709Z,83.40
2017-10-20T19:36:57.288Z,84.00
2017-10-20T19:39:24.842Z,82.50
2017-10-20T19:41:52.428Z,82.40
2017-10-20T19:44:21.071Z,83.60
2017-10-20T19:46:48.655Z,83.60
2017-10-20T19:49:16.470Z,81.90
2017-10-20T19:51:44.034Z,83.50
2017-10-20T19:54:11.710Z,84.60
2017-10-20T19:56:39.366Z,83.40
2017-10-20T19:59:07.654Z,83.30
2017-10-20T20:01:35.192Z,83.30
2017-10-20T20:04:02.816Z,85.50
2017-10-20T20:06:31.393Z,85.70
2017-10-20T20:08:59.776Z,85.60
2017-10-20T20:11:28.287Z,85.00
2017-10-20T20:13:55.944Z,85.00
2017-10-20T20:16:23.497Z,86.20
2017-10-20T20:18:51.169Z,86.40
2017-10-20T20:21:18.746Z,86.80
2017-10-20T20:23:46.366Z,87.20
2017-10-20T20:26:13.930Z,87.40
2017-10-20T20:28:41.846Z,87.80
2017-10-20T20:31:09.410Z,88.30
2017-10-20T20:33:37.504Z,88.10
2017-10-20T20:36:05.813Z,88.40
2017-10-20T20:38:33.403Z,88.20
2017-10-20T20:41:00.995Z,88.30
2017-10-20T20:43:29.369Z,88.80
2017-10-20T20:45:57.888Z,89.50
2017-10-20T20:48:25.435Z,89.50
2017-10-20T20:50:53.052Z,89.30
2017-10-20T20:53:20.621Z,88.90
2017-10-20T20:55:48.946Z,89.20
2017-10-20T20:58:16.607Z,89.10
2017-10-20T21:00:44.222Z,89.30
2017-10-20T21:03:13.186Z,89.90
2017-10-20T21:05:40.741Z,89.90
2017-10-20T21:08:08.343Z,89.50
2017-10-20T21:10:36.744Z,89.40
2017-10-20T21:13:04.279Z,89.30
2017-10-20T21:15:31.942Z,89.30
2017-10-20T21:17:59.543Z,89.30
2017-10-20T21:20:27.105Z,88.80
2017-10-20T21:22:54.669Z,88.60
2017-10-20T21:25:22.492Z,89.30
2017-10-20T21:27:50.059Z,88.60
2017-10-20T21:30:17.646Z,88.70
2017-10-20T21:32:45.209Z,88.50
2017-10-20T21:35:12.753Z,89.20
2017-10-20T21:37:40.308Z,88.90
2017-10-20T21:40:07.902Z,89.30
2017-10-20T21:42:35.493Z,89.40
2017-10-20T21:45:03.055Z,90.00
2017-10-20T21:47:30.661Z,89.10
2017-10-20T21:49:58.219Z,89.10
2017-10-20T21:52:25.767Z,88.90
2017-10-20T21:54:53.558Z,89.00
2017-10-20T21:57:21.110Z,88.90
2017-10-20T21:59:48.676Z,89.70
2017-10-20T22:02:16.281Z,88.90
2017-10-20T22:04:43.842Z,89.60
2017-10-20T22:07:11.424Z,89.50
2017-10-20T22:09:39.021Z,89.70
2017-10-20T22:12:07.690Z,89.70
2017-10-20T22:14:35.278Z,89.60
2017-10-20T22:17:02.932Z,89.90
2017-10-20T22:19:30.535Z,89.00
2017-10-20T22:21:58.123Z,88.90
2017-10-20T22:24:25.706Z,89.50
2017-10-20T22:26:54.113Z,88.30
2017-10-20T22:29:25.521Z,88.20
2017-10-20T22:31:53.853Z,87.40
2017-10-20T22:34:21.774Z,87.40
2017-10-20T22:36:51.142Z,86.90
2017-10-20T22:39:19.463Z,86.80
2017-10-20T22:41:47.068Z,88.10
2017-10-20T22:44:14.650Z,87.90
2017-10-20T22:46:42.959Z,86.90
2017-10-20T22:49:10.514Z,87.50
2017-10-20T22:51:38.071Z,87.70
2017-10-20T22:54:05.651Z,87.60
2017-10-20T22:56:33.201Z,88.20
2017-10-20T22:59:00.773Z,87.10
2017-10-20T23:01:28.364Z,86.80
2017-10-20T23:03:56.791Z,87.70
2017-10-20T23:06:24.339Z,87.70
2017-10-20T23:08:52.691Z,87.60
2017-10-20T23:11:20.238Z,87.60
2017-10-20T23:13:47.810Z,87.70
2017-10-20T23:16:15.498Z,87.70
2017-10-20T23:18:43.847Z,87.90
2017-10-20T23:21:11.413Z,87.90
2017-10-20T23:23:39.941Z,88.40
2017-10-20T23:26:07.485Z,88.40
2017-10-20T23:28:35.127Z,88.40
2017-10-20T23:31:02.758Z,88.60
2017-10-20T23:33:30.358Z,88.40
2017-10-20T23:35:57.935Z,89.00
2017-10-20T23:38:25.502Z,89.10
2017-10-20T23:40:53.137Z,88.90
2017-10-20T23:43:20.653Z,89.10
2017-10-20T23:45:48.213Z,89.20
2017-10-20T23:48:15.770Z,89.00
2017-10-20T23:50:43.342Z,89.20
2017-10-20T23:53:11.885Z,89.90
2017-10-20T23:55:39.427Z,89.80
2017-10-20T23:58:07.005Z,90.00
